UAE707 FSIA-FMMI
Flight info
| Callsign | UAE707 |
|---|---|
| Flight time | N/A |
| Altitude | 38000 |
| Route | OKLIM T113 NORSI UL441 GATLA GATLA1Z |
| Aircraft | B77W/H-SDE1E2E3FGHIJ2J3J4J5M1RWXY/LB1D1 |
Departure
| Time | 2026-04-28 09:03 |
|---|---|
| Airport | Seychelles International Airport (FSIA) |
Arrival
| Time | N/A |
|---|---|
| Airport | Ivato International Airport (FMMI) |
| Time | Latitude | Longitude | Altitude | Speed | Heading |
|---|---|---|---|---|---|
| 2026-04-28 08:22 | -4.67074 | 55.51229 | 23 ft | 0 kts | 214° |
| 2026-04-28 08:52 | -4.67072 | 55.51231 | 24 ft | 1 kts | 213° |
| 2026-04-28 08:52 | -4.67058 | 55.51240 | 24 ft | 3 kts | 200° |
| 2026-04-28 08:52 | -4.67041 | 55.51245 | 24 ft | 3 kts | 179° |
| 2026-04-28 08:53 | -4.67025 | 55.51243 | 24 ft | 3 kts | 155° |
| 2026-04-28 08:53 | -4.67010 | 55.51235 | 24 ft | 3 kts | 134° |
| 2026-04-28 08:53 | -4.66997 | 55.51220 | 24 ft | 3 kts | 123° |
| 2026-04-28 08:53 | -4.66987 | 55.51203 | 24 ft | 3 kts | 120° |
| 2026-04-28 08:54 | -4.66977 | 55.51185 | 24 ft | 3 kts | 122° |
| 2026-04-28 08:54 | -4.66972 | 55.51177 | 24 ft | 0 kts | 124° |
| 2026-04-28 08:56 | -4.66983 | 55.51194 | 24 ft | 5 kts | 124° |
| 2026-04-28 08:57 | -4.67006 | 55.51227 | 24 ft | 8 kts | 124° |
| 2026-04-28 08:57 | -4.67008 | 55.51284 | 24 ft | 9 kts | 56° |
| 2026-04-28 08:57 | -4.66956 | 55.51332 | 24 ft | 11 kts | 33° |
| 2026-04-28 08:57 | -4.66915 | 55.51390 | 24 ft | 10 kts | 96° |
| 2026-04-28 08:58 | -4.66951 | 55.51465 | 24 ft | 14 kts | 124° |
| 2026-04-28 08:58 | -4.67015 | 55.51559 | 24 ft | 19 kts | 124° |
| 2026-04-28 08:58 | -4.67096 | 55.51677 | 24 ft | 23 kts | 125° |
| 2026-04-28 08:58 | -4.67193 | 55.51817 | 24 ft | 26 kts | 124° |
| 2026-04-28 08:59 | -4.67303 | 55.51978 | 24 ft | 29 kts | 125° |
| 2026-04-28 08:59 | -4.67421 | 55.52148 | 24 ft | 30 kts | 125° |
| 2026-04-28 08:59 | -4.67542 | 55.52323 | 24 ft | 29 kts | 125° |
| 2026-04-28 08:59 | -4.67654 | 55.52482 | 24 ft | 26 kts | 124° |
| 2026-04-28 09:00 | -4.67753 | 55.52626 | 24 ft | 23 kts | 124° |
| 2026-04-28 09:00 | -4.67840 | 55.52752 | 24 ft | 21 kts | 125° |
| 2026-04-28 09:00 | -4.67921 | 55.52869 | 24 ft | 20 kts | 124° |
| 2026-04-28 09:00 | -4.67998 | 55.52978 | 24 ft | 19 kts | 126° |
| 2026-04-28 09:01 | -4.68072 | 55.53082 | 24 ft | 18 kts | 125° |
| 2026-04-28 09:01 | -4.68145 | 55.53144 | 24 ft | 12 kts | 164° |
| 2026-04-28 09:01 | -4.68223 | 55.53164 | 24 ft | 11 kts | 170° |
| 2026-04-28 09:01 | -4.68269 | 55.53202 | 24 ft | 9 kts | 90° |
| 2026-04-28 09:02 | -4.68234 | 55.53254 | 24 ft | 9 kts | 24° |
| 2026-04-28 09:02 | -4.68177 | 55.53237 | 24 ft | 9 kts | 311° |
| 2026-04-28 09:02 | -4.68091 | 55.53116 | 24 ft | 41 kts | 306° |
| 2026-04-28 09:02 | -4.67759 | 55.52636 | 24 ft | 126 kts | 304° |
| 2026-04-28 09:03 | -4.67110 | 55.51707 | 93 ft | 190 kts | 306° |
| 2026-04-28 09:03 | -4.66330 | 55.50568 | 701 ft | 207 kts | 305° |
| 2026-04-28 09:03 | -4.65511 | 55.49377 | 1733 ft | 208 kts | 306° |
| 2026-04-28 09:03 | -4.64631 | 55.48118 | 2365 ft | 233 kts | 306° |
| 2026-04-28 09:04 | -4.63708 | 55.46796 | 3512 ft | 229 kts | 306° |
| 2026-04-28 09:04 | -4.62723 | 55.45462 | 4139 ft | 250 kts | 307° |
| 2026-04-28 09:04 | -4.61626 | 55.44089 | 5053 ft | 252 kts | 307° |
| 2026-04-28 09:04 | -4.60775 | 55.42531 | 5775 ft | 262 kts | 285° |
| 2026-04-28 09:05 | -4.60753 | 55.40714 | 6569 ft | 266 kts | 257° |
| 2026-04-28 09:05 | -4.61561 | 55.39080 | 7429 ft | 269 kts | 234° |
| 2026-04-28 09:05 | -4.62900 | 55.37744 | 8231 ft | 276 kts | 221° |
| 2026-04-28 09:05 | -4.64399 | 55.36503 | 9013 ft | 282 kts | 221° |
| 2026-04-28 09:06 | -4.65911 | 55.35219 | 9818 ft | 287 kts | 221° |
| 2026-04-28 09:06 | -4.67444 | 55.33884 | 10495 ft | 298 kts | 222° |
| 2026-04-28 09:06 | -4.69047 | 55.32466 | 11010 ft | 316 kts | 222° |
| 2026-04-28 09:06 | -4.70748 | 55.30953 | 11495 ft | 336 kts | 222° |
| 2026-04-28 09:07 | -4.72542 | 55.29354 | 12066 ft | 353 kts | 222° |
| 2026-04-28 09:07 | -4.74380 | 55.27712 | 12812 ft | 364 kts | 222° |
| 2026-04-28 09:07 | -4.76291 | 55.26000 | 13574 ft | 374 kts | 222° |
| 2026-04-28 09:07 | -4.78251 | 55.24245 | 14410 ft | 382 kts | 222° |
| 2026-04-28 09:08 | -4.80250 | 55.22453 | 15245 ft | 387 kts | 222° |
| 2026-04-28 09:08 | -4.82271 | 55.20642 | 16055 ft | 394 kts | 222° |
| 2026-04-28 09:08 | -4.84322 | 55.18804 | 16862 ft | 398 kts | 222° |
| 2026-04-28 09:08 | -4.86401 | 55.16939 | 17629 ft | 404 kts | 222° |
| 2026-04-28 09:09 | -4.88511 | 55.15048 | 18407 ft | 409 kts | 221° |
| 2026-04-28 09:09 | -4.90644 | 55.13139 | 19109 ft | 414 kts | 220° |
| 2026-04-28 09:09 | -4.92913 | 55.11393 | 19782 ft | 419 kts | 213° |
| 2026-04-28 09:09 | -4.94601 | 55.10365 | 20249 ft | 422 kts | 209° |